sensor_id;sensor_type;location;lat;lon;timestamp;P1;durP1;ratioP1;P2;durP2;ratioP2
33327;SDS011;19692;52.998;9.116;2024-01-30T00:01:49;14.67;;;11.70;;
33327;SDS011;19692;52.998;9.116;2024-01-30T00:04:15;18.10;;;11.50;;
33327;SDS011;19692;52.998;9.116;2024-01-30T00:06:42;16.03;;;11.70;;
33327;SDS011;19692;52.998;9.116;2024-01-30T00:09:08;14.03;;;10.77;;
33327;SDS011;19692;52.998;9.116;2024-01-30T00:11:35;15.23;;;11.37;;
33327;SDS011;19692;52.998;9.116;2024-01-30T00:14:02;14.03;;;10.80;;
33327;SDS011;19692;52.998;9.116;2024-01-30T00:16:28;14.43;;;11.87;;
33327;SDS011;19692;52.998;9.116;2024-01-30T00:18:54;14.57;;;11.60;;
33327;SDS011;19692;52.998;9.116;2024-01-30T00:21:20;14.00;;;11.03;;
33327;SDS011;19692;52.998;9.116;2024-01-30T00:23:46;13.40;;;10.83;;
33327;SDS011;19692;52.998;9.116;2024-01-30T00:26:13;12.27;;;10.83;;
33327;SDS011;19692;52.998;9.116;2024-01-30T00:28:40;12.00;;;10.37;;
33327;SDS011;19692;52.998;9.116;2024-01-30T00:31:06;12.97;;;10.73;;
33327;SDS011;19692;52.998;9.116;2024-01-30T00:33:32;15.77;;;11.70;;
33327;SDS011;19692;52.998;9.116;2024-01-30T00:35:58;12.70;;;10.33;;
33327;SDS011;19692;52.998;9.116;2024-01-30T00:38:24;12.70;;;11.17;;
33327;SDS011;19692;52.998;9.116;2024-01-30T00:40:49;12.80;;;10.67;;
33327;SDS011;19692;52.998;9.116;2024-01-30T00:43:15;12.30;;;11.00;;
33327;SDS011;19692;52.998;9.116;2024-01-30T00:45:43;14.87;;;11.03;;
33327;SDS011;19692;52.998;9.116;2024-01-30T00:48:09;13.60;;;11.30;;
33327;SDS011;19692;52.998;9.116;2024-01-30T00:50:35;13.27;;;10.87;;
33327;SDS011;19692;52.998;9.116;2024-01-30T00:53:00;16.87;;;11.53;;
33327;SDS011;19692;52.998;9.116;2024-01-30T00:55:26;13.90;;;11.50;;
33327;SDS011;19692;52.998;9.116;2024-01-30T00:57:52;16.17;;;11.57;;
33327;SDS011;19692;52.998;9.116;2024-01-30T01:00:17;15.20;;;12.10;;
33327;SDS011;19692;52.998;9.116;2024-01-30T01:02:45;15.47;;;12.03;;
33327;SDS011;19692;52.998;9.116;2024-01-30T01:05:11;13.73;;;11.83;;
33327;SDS011;19692;52.998;9.116;2024-01-30T01:07:37;15.80;;;12.30;;
33327;SDS011;19692;52.998;9.116;2024-01-30T01:10:03;17.13;;;12.20;;
33327;SDS011;19692;52.998;9.116;2024-01-30T01:12:29;13.77;;;11.37;;
33327;SDS011;19692;52.998;9.116;2024-01-30T01:14:54;15.00;;;11.83;;
33327;SDS011;19692;52.998;9.116;2024-01-30T01:17:20;14.40;;;12.10;;
33327;SDS011;19692;52.998;9.116;2024-01-30T01:19:46;15.73;;;12.40;;
33327;SDS011;19692;52.998;9.116;2024-01-30T01:22:12;13.37;;;11.60;;
33327;SDS011;19692;52.998;9.116;2024-01-30T01:24:37;14.77;;;11.83;;
33327;SDS011;19692;52.998;9.116;2024-01-30T01:27:04;16.83;;;12.57;;
33327;SDS011;19692;52.998;9.116;2024-01-30T01:29:30;14.63;;;11.77;;
33327;SDS011;19692;52.998;9.116;2024-01-30T01:31:57;15.00;;;12.00;;
33327;SDS011;19692;52.998;9.116;2024-01-30T01:34:23;13.50;;;12.10;;
33327;SDS011;19692;52.998;9.116;2024-01-30T01:36:49;15.80;;;12.20;;
33327;SDS011;19692;52.998;9.116;2024-01-30T01:39:16;15.10;;;12.07;;
33327;SDS011;19692;52.998;9.116;2024-01-30T01:41:42;16.17;;;12.13;;
33327;SDS011;19692;52.998;9.116;2024-01-30T01:44:08;14.80;;;13.30;;
33327;SDS011;19692;52.998;9.116;2024-01-30T01:46:34;14.53;;;12.30;;
33327;SDS011;19692;52.998;9.116;2024-01-30T01:49:02;14.23;;;12.73;;
33327;SDS011;19692;52.998;9.116;2024-01-30T01:51:30;18.53;;;12.60;;
33327;SDS011;19692;52.998;9.116;2024-01-30T01:53:59;17.00;;;12.73;;
33327;SDS011;19692;52.998;9.116;2024-01-30T01:56:30;15.67;;;13.27;;
33327;SDS011;19692;52.998;9.116;2024-01-30T01:58:59;18.47;;;13.53;;
33327;SDS011;19692;52.998;9.116;2024-01-30T02:01:30;16.30;;;12.97;;
33327;SDS011;19692;52.998;9.116;2024-01-30T02:03:58;15.97;;;13.77;;
33327;SDS011;19692;52.998;9.116;2024-01-30T02:06:24;17.73;;;13.67;;
33327;SDS011;19692;52.998;9.116;2024-01-30T02:08:50;16.87;;;13.40;;
33327;SDS011;19692;52.998;9.116;2024-01-30T02:11:16;16.47;;;14.57;;
33327;SDS011;19692;52.998;9.116;2024-01-30T02:13:42;18.03;;;13.83;;
33327;SDS011;19692;52.998;9.116;2024-01-30T02:16:07;16.13;;;13.70;;
33327;SDS011;19692;52.998;9.116;2024-01-30T02:18:33;16.00;;;12.97;;
33327;SDS011;19692;52.998;9.116;2024-01-30T02:20:59;18.20;;;13.87;;
33327;SDS011;19692;52.998;9.116;2024-01-30T02:23:29;17.37;;;12.73;;
33327;SDS011;19692;52.998;9.116;2024-01-30T02:25:58;18.77;;;13.43;;
33327;SDS011;19692;52.998;9.116;2024-01-30T02:28:23;13.97;;;12.43;;
33327;SDS011;19692;52.998;9.116;2024-01-30T02:30:49;18.90;;;13.97;;
33327;SDS011;19692;52.998;9.116;2024-01-30T02:33:15;15.30;;;13.27;;
33327;SDS011;19692;52.998;9.116;2024-01-30T02:35:41;15.03;;;12.57;;
33327;SDS011;19692;52.998;9.116;2024-01-30T02:38:06;16.87;;;13.13;;
33327;SDS011;19692;52.998;9.116;2024-01-30T02:40:32;16.70;;;12.53;;
33327;SDS011;19692;52.998;9.116;2024-01-30T02:42:59;15.40;;;13.13;;
33327;SDS011;19692;52.998;9.116;2024-01-30T02:45:26;16.93;;;12.97;;
33327;SDS011;19692;52.998;9.116;2024-01-30T02:47:52;15.37;;;13.27;;
33327;SDS011;19692;52.998;9.116;2024-01-30T02:50:17;15.33;;;12.60;;
33327;SDS011;19692;52.998;9.116;2024-01-30T02:52:43;18.17;;;13.73;;
33327;SDS011;19692;52.998;9.116;2024-01-30T02:55:09;16.93;;;13.90;;
33327;SDS011;19692;52.998;9.116;2024-01-30T02:57:35;16.23;;;13.73;;
33327;SDS011;19692;52.998;9.116;2024-01-30T03:00:01;15.40;;;12.93;;
33327;SDS011;19692;52.998;9.116;2024-01-30T03:02:29;16.73;;;13.37;;
33327;SDS011;19692;52.998;9.116;2024-01-30T03:04:55;18.77;;;13.73;;
33327;SDS011;19692;52.998;9.116;2024-01-30T03:07:20;16.27;;;13.60;;
33327;SDS011;19692;52.998;9.116;2024-01-30T03:09:46;17.70;;;12.80;;
33327;SDS011;19692;52.998;9.116;2024-01-30T03:12:12;17.13;;;13.60;;
33327;SDS011;19692;52.998;9.116;2024-01-30T03:14:37;16.53;;;13.43;;
33327;SDS011;19692;52.998;9.116;2024-01-30T03:17:03;19.60;;;12.83;;
33327;SDS011;19692;52.998;9.116;2024-01-30T03:19:29;19.47;;;13.77;;
33327;SDS011;19692;52.998;9.116;2024-01-30T03:21:54;16.87;;;13.60;;
33327;SDS011;19692;52.998;9.116;2024-01-30T03:24:20;16.13;;;13.10;;
33327;SDS011;19692;52.998;9.116;2024-01-30T03:26:46;16.87;;;14.07;;
33327;SDS011;19692;52.998;9.116;2024-01-30T03:29:12;17.43;;;14.17;;
33327;SDS011;19692;52.998;9.116;2024-01-30T03:31:38;18.93;;;14.70;;
33327;SDS011;19692;52.998;9.116;2024-01-30T03:34:04;17.83;;;14.23;;
33327;SDS011;19692;52.998;9.116;2024-01-30T03:36:30;19.37;;;15.00;;
33327;SDS011;19692;52.998;9.116;2024-01-30T03:38:58;24.20;;;18.70;;
33327;SDS011;19692;52.998;9.116;2024-01-30T03:41:24;27.57;;;19.97;;
33327;SDS011;19692;52.998;9.116;2024-01-30T03:43:49;21.87;;;18.03;;
33327;SDS011;19692;52.998;9.116;2024-01-30T03:46:15;23.43;;;18.47;;
33327;SDS011;19692;52.998;9.116;2024-01-30T03:48:41;21.67;;;17.43;;
33327;SDS011;19692;52.998;9.116;2024-01-30T03:51:07;22.60;;;17.63;;
33327;SDS011;19692;52.998;9.116;2024-01-30T03:53:33;26.47;;;18.57;;
33327;SDS011;19692;52.998;9.116;2024-01-30T03:55:59;22.07;;;18.13;;
33327;SDS011;19692;52.998;9.116;2024-01-30T03:58:25;23.37;;;19.13;;
33327;SDS011;19692;52.998;9.116;2024-01-30T04:00:50;27.07;;;19.67;;
33327;SDS011;19692;52.998;9.116;2024-01-30T04:03:16;23.97;;;18.73;;
33327;SDS011;19692;52.998;9.116;2024-01-30T04:05:42;24.67;;;18.27;;
33327;SDS011;19692;52.998;9.116;2024-01-30T04:08:08;24.17;;;17.37;;
33327;SDS011;19692;52.998;9.116;2024-01-30T04:10:34;22.57;;;18.60;;
33327;SDS011;19692;52.998;9.116;2024-01-30T04:13:00;27.23;;;19.30;;
33327;SDS011;19692;52.998;9.116;2024-01-30T04:15:26;21.13;;;16.73;;
33327;SDS011;19692;52.998;9.116;2024-01-30T04:17:52;19.37;;;15.53;;
33327;SDS011;19692;52.998;9.116;2024-01-30T04:20:18;21.50;;;17.23;;
33327;SDS011;19692;52.998;9.116;2024-01-30T04:22:44;20.00;;;17.47;;
33327;SDS011;19692;52.998;9.116;2024-01-30T04:25:11;22.80;;;18.90;;
33327;SDS011;19692;52.998;9.116;2024-01-30T04:27:38;22.13;;;17.67;;
33327;SDS011;19692;52.998;9.116;2024-01-30T04:30:04;19.50;;;17.13;;
33327;SDS011;19692;52.998;9.116;2024-01-30T04:32:31;22.43;;;18.10;;
33327;SDS011;19692;52.998;9.116;2024-01-30T04:34:57;24.97;;;18.03;;
33327;SDS011;19692;52.998;9.116;2024-01-30T04:37:23;20.37;;;17.07;;
33327;SDS011;19692;52.998;9.116;2024-01-30T04:39:49;22.97;;;17.97;;
33327;SDS011;19692;52.998;9.116;2024-01-30T04:42:16;23.27;;;17.33;;
33327;SDS011;19692;52.998;9.116;2024-01-30T04:44:42;22.97;;;17.50;;
33327;SDS011;19692;52.998;9.116;2024-01-30T04:47:08;20.47;;;17.67;;
33327;SDS011;19692;52.998;9.116;2024-01-30T04:49:36;22.30;;;16.87;;
33327;SDS011;19692;52.998;9.116;2024-01-30T04:52:01;21.23;;;17.10;;
33327;SDS011;19692;52.998;9.116;2024-01-30T04:54:27;19.97;;;15.90;;
33327;SDS011;19692;52.998;9.116;2024-01-30T04:56:53;20.80;;;17.77;;
33327;SDS011;19692;52.998;9.116;2024-01-30T04:59:19;22.07;;;16.47;;
33327;SDS011;19692;52.998;9.116;2024-01-30T05:01:44;24.57;;;17.33;;
33327;SDS011;19692;52.998;9.116;2024-01-30T05:04:10;19.90;;;16.93;;
33327;SDS011;19692;52.998;9.116;2024-01-30T05:06:36;21.93;;;17.43;;
33327;SDS011;19692;52.998;9.116;2024-01-30T05:09:02;23.30;;;17.23;;
33327;SDS011;19692;52.998;9.116;2024-01-30T05:11:29;21.70;;;17.90;;
33327;SDS011;19692;52.998;9.116;2024-01-30T05:13:55;21.40;;;17.37;;
33327;SDS011;19692;52.998;9.116;2024-01-30T05:16:21;21.23;;;17.07;;
33327;SDS011;19692;52.998;9.116;2024-01-30T05:18:47;23.87;;;16.73;;
33327;SDS011;19692;52.998;9.116;2024-01-30T05:21:13;19.97;;;17.73;;
33327;SDS011;19692;52.998;9.116;2024-01-30T05:23:39;21.13;;;17.87;;
33327;SDS011;19692;52.998;9.116;2024-01-30T05:26:06;22.63;;;19.03;;
33327;SDS011;19692;52.998;9.116;2024-01-30T05:28:33;23.47;;;18.50;;
33327;SDS011;19692;52.998;9.116;2024-01-30T05:30:58;22.17;;;18.80;;
33327;SDS011;19692;52.998;9.116;2024-01-30T05:33:24;22.47;;;18.33;;
33327;SDS011;19692;52.998;9.116;2024-01-30T05:35:50;21.67;;;17.40;;
33327;SDS011;19692;52.998;9.116;2024-01-30T05:38:19;22.90;;;17.80;;
33327;SDS011;19692;52.998;9.116;2024-01-30T05:40:45;22.63;;;18.60;;
33327;SDS011;19692;52.998;9.116;2024-01-30T05:43:10;20.60;;;17.63;;
33327;SDS011;19692;52.998;9.116;2024-01-30T05:45:37;21.30;;;17.53;;
33327;SDS011;19692;52.998;9.116;2024-01-30T05:48:03;21.60;;;17.43;;
33327;SDS011;19692;52.998;9.116;2024-01-30T05:50:29;22.47;;;17.23;;
33327;SDS011;19692;52.998;9.116;2024-01-30T05:52:55;25.33;;;18.63;;
33327;SDS011;19692;52.998;9.116;2024-01-30T05:55:21;24.97;;;17.40;;
33327;SDS011;19692;52.998;9.116;2024-01-30T05:57:46;21.27;;;17.27;;
33327;SDS011;19692;52.998;9.116;2024-01-30T06:00:13;21.87;;;17.93;;
33327;SDS011;19692;52.998;9.116;2024-01-30T06:02:39;22.30;;;17.47;;
33327;SDS011;19692;52.998;9.116;2024-01-30T06:05:05;24.40;;;18.63;;
33327;SDS011;19692;52.998;9.116;2024-01-30T06:07:31;27.63;;;17.40;;
33327;SDS011;19692;52.998;9.116;2024-01-30T06:09:56;24.90;;;18.10;;
33327;SDS011;19692;52.998;9.116;2024-01-30T06:12:22;24.17;;;17.57;;
33327;SDS011;19692;52.998;9.116;2024-01-30T06:14:48;23.80;;;18.00;;
33327;SDS011;19692;52.998;9.116;2024-01-30T06:17:14;23.03;;;18.80;;
33327;SDS011;19692;52.998;9.116;2024-01-30T06:19:39;22.93;;;18.50;;
33327;SDS011;19692;52.998;9.116;2024-01-30T06:22:05;22.27;;;19.17;;
33327;SDS011;19692;52.998;9.116;2024-01-30T06:24:31;21.90;;;17.47;;
33327;SDS011;19692;52.998;9.116;2024-01-30T06:26:57;28.60;;;19.63;;
33327;SDS011;19692;52.998;9.116;2024-01-30T06:29:22;23.80;;;18.87;;
33327;SDS011;19692;52.998;9.116;2024-01-30T06:31:51;24.63;;;19.10;;
33327;SDS011;19692;52.998;9.116;2024-01-30T06:34:17;65.07;;;40.93;;
33327;SDS011;19692;52.998;9.116;2024-01-30T06:36:43;46.00;;;31.47;;
33327;SDS011;19692;52.998;9.116;2024-01-30T06:39:09;35.73;;;26.37;;
33327;SDS011;19692;52.998;9.116;2024-01-30T06:41:34;35.17;;;26.80;;
33327;SDS011;19692;52.998;9.116;2024-01-30T06:44:03;26.40;;;22.63;;
33327;SDS011;19692;52.998;9.116;2024-01-30T06:46:31;28.57;;;21.33;;
33327;SDS011;19692;52.998;9.116;2024-01-30T06:48:57;26.07;;;21.03;;
33327;SDS011;19692;52.998;9.116;2024-01-30T06:51:23;25.30;;;21.67;;
33327;SDS011;19692;52.998;9.116;2024-01-30T06:53:49;25.03;;;20.27;;
33327;SDS011;19692;52.998;9.116;2024-01-30T06:56:14;25.50;;;19.70;;
33327;SDS011;19692;52.998;9.116;2024-01-30T06:58:41;23.50;;;19.07;;
33327;SDS011;19692;52.998;9.116;2024-01-30T07:01:07;24.27;;;19.97;;
33327;SDS011;19692;52.998;9.116;2024-01-30T07:03:33;27.03;;;19.97;;
33327;SDS011;19692;52.998;9.116;2024-01-30T07:05:58;23.93;;;19.83;;
33327;SDS011;19692;52.998;9.116;2024-01-30T07:08:24;23.63;;;20.30;;
33327;SDS011;19692;52.998;9.116;2024-01-30T07:10:50;23.60;;;19.60;;
33327;SDS011;19692;52.998;9.116;2024-01-30T07:13:15;26.23;;;19.27;;
33327;SDS011;19692;52.998;9.116;2024-01-30T07:15:42;26.30;;;20.57;;
33327;SDS011;19692;52.998;9.116;2024-01-30T07:18:08;25.10;;;20.13;;
33327;SDS011;19692;52.998;9.116;2024-01-30T07:20:34;27.60;;;20.97;;
33327;SDS011;19692;52.998;9.116;2024-01-30T07:23:00;27.73;;;20.67;;
33327;SDS011;19692;52.998;9.116;2024-01-30T07:25:27;27.73;;;21.83;;
33327;SDS011;19692;52.998;9.116;2024-01-30T07:27:54;27.73;;;21.57;;
33327;SDS011;19692;52.998;9.116;2024-01-30T07:30:21;32.57;;;22.10;;
33327;SDS011;19692;52.998;9.116;2024-01-30T07:32:46;27.30;;;21.23;;
33327;SDS011;19692;52.998;9.116;2024-01-30T07:35:13;26.77;;;21.73;;
33327;SDS011;19692;52.998;9.116;2024-01-30T07:37:39;31.70;;;20.97;;
33327;SDS011;19692;52.998;9.116;2024-01-30T07:40:04;28.17;;;21.90;;
33327;SDS011;19692;52.998;9.116;2024-01-30T07:42:31;26.40;;;20.90;;
33327;SDS011;19692;52.998;9.116;2024-01-30T07:44:58;30.23;;;24.07;;
33327;SDS011;19692;52.998;9.116;2024-01-30T07:47:25;28.43;;;23.10;;
33327;SDS011;19692;52.998;9.116;2024-01-30T07:49:51;32.23;;;24.97;;
33327;SDS011;19692;52.998;9.116;2024-01-30T07:52:17;29.20;;;23.10;;
33327;SDS011;19692;52.998;9.116;2024-01-30T07:54:43;30.20;;;23.00;;
33327;SDS011;19692;52.998;9.116;2024-01-30T07:57:09;29.00;;;23.83;;
33327;SDS011;19692;52.998;9.116;2024-01-30T07:59:34;30.60;;;23.37;;
33327;SDS011;19692;52.998;9.116;2024-01-30T08:02:00;25.93;;;21.67;;
33327;SDS011;19692;52.998;9.116;2024-01-30T08:04:26;30.27;;;22.03;;
33327;SDS011;19692;52.998;9.116;2024-01-30T08:06:52;30.80;;;22.47;;
33327;SDS011;19692;52.998;9.116;2024-01-30T08:09:17;30.33;;;22.03;;
33327;SDS011;19692;52.998;9.116;2024-01-30T08:11:43;25.87;;;21.70;;
33327;SDS011;19692;52.998;9.116;2024-01-30T08:14:09;30.77;;;22.37;;
33327;SDS011;19692;52.998;9.116;2024-01-30T08:16:34;32.63;;;22.97;;
33327;SDS011;19692;52.998;9.116;2024-01-30T08:19:00;29.77;;;21.60;;
33327;SDS011;19692;52.998;9.116;2024-01-30T08:21:26;33.30;;;23.33;;
33327;SDS011;19692;52.998;9.116;2024-01-30T08:23:52;34.80;;;23.17;;
33327;SDS011;19692;52.998;9.116;2024-01-30T08:26:17;29.37;;;21.37;;
33327;SDS011;19692;52.998;9.116;2024-01-30T08:28:43;28.90;;;20.97;;
33327;SDS011;19692;52.998;9.116;2024-01-30T08:31:12;29.33;;;21.87;;
33327;SDS011;19692;52.998;9.116;2024-01-30T08:33:38;28.27;;;22.63;;
33327;SDS011;19692;52.998;9.116;2024-01-30T08:36:03;31.17;;;21.80;;
33327;SDS011;19692;52.998;9.116;2024-01-30T08:38:29;28.93;;;22.10;;
33327;SDS011;19692;52.998;9.116;2024-01-30T08:40:55;25.70;;;20.13;;
33327;SDS011;19692;52.998;9.116;2024-01-30T08:43:21;24.47;;;19.47;;
33327;SDS011;19692;52.998;9.116;2024-01-30T08:45:47;29.10;;;19.60;;
33327;SDS011;19692;52.998;9.116;2024-01-30T08:48:13;25.43;;;19.47;;
33327;SDS011;19692;52.998;9.116;2024-01-30T08:50:38;25.73;;;20.43;;
33327;SDS011;19692;52.998;9.116;2024-01-30T08:53:04;27.03;;;21.87;;
33327;SDS011;19692;52.998;9.116;2024-01-30T08:55:30;29.37;;;24.07;;
33327;SDS011;19692;52.998;9.116;2024-01-30T08:57:56;34.70;;;25.80;;
33327;SDS011;19692;52.998;9.116;2024-01-30T09:00:21;35.87;;;25.80;;
33327;SDS011;19692;52.998;9.116;2024-01-30T09:02:47;28.80;;;23.00;;
33327;SDS011;19692;52.998;9.116;2024-01-30T09:05:13;25.13;;;20.33;;
33327;SDS011;19692;52.998;9.116;2024-01-30T09:07:39;23.37;;;19.70;;
33327;SDS011;19692;52.998;9.116;2024-01-30T09:10:05;23.07;;;18.77;;
33327;SDS011;19692;52.998;9.116;2024-01-30T09:12:31;25.43;;;19.70;;
33327;SDS011;19692;52.998;9.116;2024-01-30T09:14:57;24.10;;;18.70;;
33327;SDS011;19692;52.998;9.116;2024-01-30T09:17:22;22.70;;;18.57;;
33327;SDS011;19692;52.998;9.116;2024-01-30T09:19:48;23.97;;;18.37;;
33327;SDS011;19692;52.998;9.116;2024-01-30T09:22:14;24.03;;;18.33;;
33327;SDS011;19692;52.998;9.116;2024-01-30T09:24:40;23.03;;;18.50;;
33327;SDS011;19692;52.998;9.116;2024-01-30T09:27:06;21.50;;;17.83;;
33327;SDS011;19692;52.998;9.116;2024-01-30T09:29:31;20.63;;;17.87;;
33327;SDS011;19692;52.998;9.116;2024-01-30T09:31:59;20.73;;;17.00;;
33327;SDS011;19692;52.998;9.116;2024-01-30T09:34:25;21.90;;;17.13;;
33327;SDS011;19692;52.998;9.116;2024-01-30T09:36:51;20.87;;;17.37;;
33327;SDS011;19692;52.998;9.116;2024-01-30T09:39:16;26.37;;;19.47;;
33327;SDS011;19692;52.998;9.116;2024-01-30T09:41:45;23.10;;;18.20;;
33327;SDS011;19692;52.998;9.116;2024-01-30T09:45:01;22.40;;;18.27;;
33327;SDS011;19692;52.998;9.116;2024-01-30T09:47:41;21.30;;;17.63;;
33327;SDS011;19692;52.998;9.116;2024-01-30T09:50:10;24.70;;;18.60;;
33327;SDS011;19692;52.998;9.116;2024-01-30T09:52:37;23.97;;;18.13;;
33327;SDS011;19692;52.998;9.116;2024-01-30T09:55:04;22.67;;;16.43;;
33327;SDS011;19692;52.998;9.116;2024-01-30T09:57:31;24.07;;;17.17;;
33327;SDS011;19692;52.998;9.116;2024-01-30T09:59:57;20.30;;;16.57;;
33327;SDS011;19692;52.998;9.116;2024-01-30T10:02:23;21.20;;;17.33;;
33327;SDS011;19692;52.998;9.116;2024-01-30T10:04:49;21.73;;;16.50;;
33327;SDS011;19692;52.998;9.116;2024-01-30T10:07:16;20.37;;;17.37;;
33327;SDS011;19692;52.998;9.116;2024-01-30T10:09:43;22.47;;;17.27;;
33327;SDS011;19692;52.998;9.116;2024-01-30T10:12:09;20.40;;;16.30;;
33327;SDS011;19692;52.998;9.116;2024-01-30T10:14:41;19.53;;;16.17;;
33327;SDS011;19692;52.998;9.116;2024-01-30T10:17:08;17.97;;;15.83;;
33327;SDS011;19692;52.998;9.116;2024-01-30T10:19:35;20.40;;;15.80;;
33327;SDS011;19692;52.998;9.116;2024-01-30T10:22:03;20.43;;;16.77;;
33327;SDS011;19692;52.998;9.116;2024-01-30T10:24:29;23.13;;;16.87;;
33327;SDS011;19692;52.998;9.116;2024-01-30T10:26:55;18.60;;;15.17;;
33327;SDS011;19692;52.998;9.116;2024-01-30T10:29:21;18.77;;;16.07;;
33327;SDS011;19692;52.998;9.116;2024-01-30T10:31:57;18.27;;;15.50;;
33327;SDS011;19692;52.998;9.116;2024-01-30T10:34:28;21.43;;;16.80;;
33327;SDS011;19692;52.998;9.116;2024-01-30T10:37:05;18.40;;;15.73;;
33327;SDS011;19692;52.998;9.116;2024-01-30T10:39:43;22.53;;;16.70;;
33327;SDS011;19692;52.998;9.116;2024-01-30T10:42:14;19.73;;;17.37;;
33327;SDS011;19692;52.998;9.116;2024-01-30T10:44:44;21.30;;;16.17;;
33327;SDS011;19692;52.998;9.116;2024-01-30T10:47:37;20.57;;;16.50;;
33327;SDS011;19692;52.998;9.116;2024-01-30T10:50:08;19.40;;;16.23;;
33327;SDS011;19692;52.998;9.116;2024-01-30T10:52:35;19.40;;;16.17;;
33327;SDS011;19692;52.998;9.116;2024-01-30T10:55:01;19.30;;;15.60;;
33327;SDS011;19692;52.998;9.116;2024-01-30T10:57:31;19.70;;;16.57;;
33327;SDS011;19692;52.998;9.116;2024-01-30T11:00:10;20.50;;;15.17;;
33327;SDS011;19692;52.998;9.116;2024-01-30T11:02:38;20.80;;;16.13;;
33327;SDS011;19692;52.998;9.116;2024-01-30T11:05:07;19.40;;;15.73;;
33327;SDS011;19692;52.998;9.116;2024-01-30T11:07:33;20.70;;;16.27;;
33327;SDS011;19692;52.998;9.116;2024-01-30T11:10:01;18.73;;;15.43;;
33327;SDS011;19692;52.998;9.116;2024-01-30T11:12:29;20.07;;;15.50;;
33327;SDS011;19692;52.998;9.116;2024-01-30T11:15:15;19.37;;;15.30;;
33327;SDS011;19692;52.998;9.116;2024-01-30T11:20:22;16.80;;;14.83;;
33327;SDS011;19692;52.998;9.116;2024-01-30T11:22:52;19.70;;;15.13;;
33327;SDS011;19692;52.998;9.116;2024-01-30T11:25:20;17.27;;;14.43;;
33327;SDS011;19692;52.998;9.116;2024-01-30T11:27:46;16.87;;;14.63;;
33327;SDS011;19692;52.998;9.116;2024-01-30T11:33:02;16.80;;;14.37;;
33327;SDS011;19692;52.998;9.116;2024-01-30T11:35:33;17.47;;;14.80;;
33327;SDS011;19692;52.998;9.116;2024-01-30T11:38:05;17.10;;;14.70;;
33327;SDS011;19692;52.998;9.116;2024-01-30T11:40:36;18.03;;;13.60;;
33327;SDS011;19692;52.998;9.116;2024-01-30T11:43:04;16.63;;;13.73;;
33327;SDS011;19692;52.998;9.116;2024-01-30T11:45:32;16.87;;;15.07;;
33327;SDS011;19692;52.998;9.116;2024-01-30T11:47:59;18.87;;;14.47;;
33327;SDS011;19692;52.998;9.116;2024-01-30T11:50:26;18.47;;;15.67;;
33327;SDS011;19692;52.998;9.116;2024-01-30T11:52:52;18.17;;;14.83;;
33327;SDS011;19692;52.998;9.116;2024-01-30T11:55:19;16.27;;;14.10;;
33327;SDS011;19692;52.998;9.116;2024-01-30T11:57:45;19.67;;;14.83;;
33327;SDS011;19692;52.998;9.116;2024-01-30T12:00:14;16.67;;;14.17;;
33327;SDS011;19692;52.998;9.116;2024-01-30T12:02:43;17.80;;;13.10;;
33327;SDS011;19692;52.998;9.116;2024-01-30T12:05:09;16.70;;;12.93;;
33327;SDS011;19692;52.998;9.116;2024-01-30T12:07:35;14.10;;;12.57;;
33327;SDS011;19692;52.998;9.116;2024-01-30T12:10:01;14.80;;;13.17;;
33327;SDS011;19692;52.998;9.116;2024-01-30T12:12:28;13.93;;;12.00;;
33327;SDS011;19692;52.998;9.116;2024-01-30T12:14:56;14.70;;;11.97;;
33327;SDS011;19692;52.998;9.116;2024-01-30T12:17:27;15.07;;;12.73;;
33327;SDS011;19692;52.998;9.116;2024-01-30T12:22:45;13.47;;;12.03;;
33327;SDS011;19692;52.998;9.116;2024-01-30T12:27:44;13.93;;;12.40;;
33327;SDS011;19692;52.998;9.116;2024-01-30T12:30:14;14.63;;;12.50;;
33327;SDS011;19692;52.998;9.116;2024-01-30T12:32:41;14.73;;;12.77;;
33327;SDS011;19692;52.998;9.116;2024-01-30T12:35:17;15.53;;;12.60;;
33327;SDS011;19692;52.998;9.116;2024-01-30T12:37:44;17.43;;;12.27;;
33327;SDS011;19692;52.998;9.116;2024-01-30T12:40:12;16.57;;;13.27;;
33327;SDS011;19692;52.998;9.116;2024-01-30T12:42:39;15.20;;;12.47;;
33327;SDS011;19692;52.998;9.116;2024-01-30T12:45:07;15.03;;;11.77;;
33327;SDS011;19692;52.998;9.116;2024-01-30T12:47:35;15.80;;;13.10;;
33327;SDS011;19692;52.998;9.116;2024-01-30T12:50:00;14.30;;;12.60;;
33327;SDS011;19692;52.998;9.116;2024-01-30T12:52:26;15.93;;;13.00;;
33327;SDS011;19692;52.998;9.116;2024-01-30T12:54:52;14.93;;;13.40;;
33327;SDS011;19692;52.998;9.116;2024-01-30T12:57:18;16.13;;;13.13;;
33327;SDS011;19692;52.998;9.116;2024-01-30T12:59:44;15.40;;;13.17;;
33327;SDS011;19692;52.998;9.116;2024-01-30T13:02:11;15.00;;;13.00;;
33327;SDS011;19692;52.998;9.116;2024-01-30T13:04:38;17.37;;;13.20;;
33327;SDS011;19692;52.998;9.116;2024-01-30T13:07:04;16.77;;;13.07;;
33327;SDS011;19692;52.998;9.116;2024-01-30T13:09:30;13.83;;;12.43;;
33327;SDS011;19692;52.998;9.116;2024-01-30T13:11:56;18.20;;;13.10;;
33327;SDS011;19692;52.998;9.116;2024-01-30T13:14:23;13.60;;;12.23;;
33327;SDS011;19692;52.998;9.116;2024-01-30T13:16:49;14.13;;;12.63;;
33327;SDS011;19692;52.998;9.116;2024-01-30T13:19:15;19.80;;;13.63;;
33327;SDS011;19692;52.998;9.116;2024-01-30T13:21:41;15.30;;;13.47;;
33327;SDS011;19692;52.998;9.116;2024-01-30T13:24:07;15.73;;;13.03;;
33327;SDS011;19692;52.998;9.116;2024-01-30T13:26:33;15.33;;;13.70;;
33327;SDS011;19692;52.998;9.116;2024-01-30T13:28:59;13.97;;;12.37;;
33327;SDS011;19692;52.998;9.116;2024-01-30T13:31:25;16.07;;;12.53;;
33327;SDS011;19692;52.998;9.116;2024-01-30T13:33:52;13.60;;;11.77;;
33327;SDS011;19692;52.998;9.116;2024-01-30T13:36:18;13.27;;;11.87;;
33327;SDS011;19692;52.998;9.116;2024-01-30T13:38:44;17.00;;;14.30;;
33327;SDS011;19692;52.998;9.116;2024-01-30T13:41:10;15.20;;;12.43;;
33327;SDS011;19692;52.998;9.116;2024-01-30T13:43:35;14.10;;;11.83;;
33327;SDS011;19692;52.998;9.116;2024-01-30T13:46:01;17.43;;;12.20;;
33327;SDS011;19692;52.998;9.116;2024-01-30T13:48:27;16.30;;;12.63;;
33327;SDS011;19692;52.998;9.116;2024-01-30T13:50:54;17.37;;;12.73;;
33327;SDS011;19692;52.998;9.116;2024-01-30T13:53:20;14.00;;;12.50;;
33327;SDS011;19692;52.998;9.116;2024-01-30T13:55:46;16.50;;;12.20;;
33327;SDS011;19692;52.998;9.116;2024-01-30T13:58:12;17.90;;;12.73;;
33327;SDS011;19692;52.998;9.116;2024-01-30T14:00:38;15.10;;;11.00;;
33327;SDS011;19692;52.998;9.116;2024-01-30T14:03:04;13.83;;;11.50;;
33327;SDS011;19692;52.998;9.116;2024-01-30T14:05:30;13.83;;;11.00;;
33327;SDS011;19692;52.998;9.116;2024-01-30T14:07:56;15.50;;;11.80;;
33327;SDS011;19692;52.998;9.116;2024-01-30T14:10:23;17.00;;;12.37;;
33327;SDS011;19692;52.998;9.116;2024-01-30T14:12:50;15.37;;;11.20;;
33327;SDS011;19692;52.998;9.116;2024-01-30T14:15:16;16.90;;;12.03;;
33327;SDS011;19692;52.998;9.116;2024-01-30T14:17:45;14.27;;;10.77;;
33327;SDS011;19692;52.998;9.116;2024-01-30T14:20:13;15.37;;;10.97;;
33327;SDS011;19692;52.998;9.116;2024-01-30T14:22:42;18.03;;;12.10;;
33327;SDS011;19692;52.998;9.116;2024-01-30T14:25:08;17.07;;;11.30;;
33327;SDS011;19692;52.998;9.116;2024-01-30T14:27:34;18.07;;;12.03;;
33327;SDS011;19692;52.998;9.116;2024-01-30T14:30:00;12.67;;;11.37;;